createdAt,value
2022-10-17T00:01:57.767Z,6.00
2022-10-17T00:04:24.231Z,6.70
2022-10-17T00:06:50.642Z,6.00
2022-10-17T00:09:17.088Z,5.13
2022-10-17T00:11:43.497Z,4.90
2022-10-17T00:14:10.000Z,5.40
2022-10-17T00:16:37.481Z,5.57
2022-10-17T00:19:06.762Z,5.70
2022-10-17T00:21:33.695Z,6.53
2022-10-17T00:24:01.118Z,6.30
2022-10-17T00:26:30.802Z,5.83
2022-10-17T00:28:57.263Z,5.97
2022-10-17T00:31:24.823Z,6.00
2022-10-17T00:33:52.253Z,6.30
2022-10-17T00:36:21.213Z,5.10
2022-10-17T00:38:51.294Z,6.03
2022-10-17T00:41:20.103Z,6.03
2022-10-17T00:44:00.277Z,5.07
2022-10-17T00:46:32.256Z,5.70
2022-10-17T00:49:02.573Z,5.73
2022-10-17T00:51:37.007Z,5.20
2022-10-17T00:54:04.187Z,5.47
2022-10-17T00:56:31.109Z,5.17
2022-10-17T00:58:57.685Z,5.40
2022-10-17T01:01:24.268Z,4.97
2022-10-17T01:03:50.801Z,5.40
2022-10-17T01:06:17.457Z,4.93
2022-10-17T01:08:44.114Z,6.43
2022-10-17T01:11:25.259Z,5.80
2022-10-17T01:13:59.564Z,6.43
2022-10-17T01:16:25.935Z,5.40
2022-10-17T01:19:11.564Z,6.97
2022-10-17T01:21:55.194Z,6.00
2022-10-17T01:24:21.537Z,7.40
2022-10-17T01:27:11.169Z,7.77
2022-10-17T01:29:43.614Z,6.37
2022-10-17T01:32:29.994Z,6.37
2022-10-17T01:35:03.685Z,5.87
2022-10-17T01:37:37.351Z,5.87
2022-10-17T01:40:44.350Z,5.87
2022-10-17T01:43:20.965Z,5.80
2022-10-17T01:45:55.281Z,5.53
2022-10-17T01:48:30.639Z,5.07
2022-10-17T01:51:03.274Z,6.33
2022-10-17T01:53:36.903Z,5.20
2022-10-17T01:56:07.764Z,5.07
2022-10-17T01:58:43.860Z,5.20
2022-10-17T02:01:12.503Z,5.80
2022-10-17T02:03:42.923Z,5.13
2022-10-17T02:06:09.646Z,4.63
2022-10-17T02:08:47.780Z,6.53
2022-10-17T02:11:18.794Z,5.27
2022-10-17T02:14:06.877Z,4.87
2022-10-17T02:16:51.937Z,5.83
2022-10-17T02:19:26.472Z,5.20
2022-10-17T02:22:04.271Z,5.93
2022-10-17T02:24:47.118Z,5.30
2022-10-17T02:27:20.672Z,5.60
2022-10-17T02:29:53.958Z,5.77
2022-10-17T02:32:49.481Z,5.17
2022-10-17T02:35:20.313Z,5.83
2022-10-17T02:37:47.538Z,5.63
2022-10-17T02:40:17.604Z,5.40
2022-10-17T02:42:45.975Z,5.50
2022-10-17T02:45:14.155Z,5.43
2022-10-17T02:47:56.898Z,5.80
2022-10-17T02:50:47.767Z,5.73
2022-10-17T02:53:19.308Z,6.07
2022-10-17T02:55:53.791Z,6.17
2022-10-17T02:58:30.831Z,7.30
2022-10-17T03:00:58.391Z,6.47
2022-10-17T03:03:27.706Z,6.40
2022-10-17T03:05:54.576Z,6.03
2022-10-17T03:08:21.805Z,6.80
2022-10-17T03:10:48.429Z,7.30
2022-10-17T03:13:15.857Z,5.43
2022-10-17T03:15:42.497Z,5.83
2022-10-17T03:18:09.062Z,5.93
2022-10-17T03:20:35.909Z,6.00
2022-10-17T03:23:02.336Z,6.90
2022-10-17T03:25:28.851Z,7.07
2022-10-17T03:27:57.506Z,7.23
2022-10-17T03:30:23.901Z,7.07
2022-10-17T03:32:50.252Z,6.50
2022-10-17T03:35:16.685Z,6.93
2022-10-17T03:37:43.098Z,6.40
2022-10-17T03:40:10.211Z,7.17
2022-10-17T03:42:37.505Z,6.73
2022-10-17T03:45:04.169Z,6.33
2022-10-17T03:47:30.855Z,6.53
2022-10-17T03:49:57.523Z,6.40
2022-10-17T03:52:23.969Z,6.40
2022-10-17T03:54:51.216Z,6.73
2022-10-17T03:57:19.230Z,6.73
2022-10-17T03:59:45.687Z,7.17
2022-10-17T04:02:12.082Z,7.00
2022-10-17T04:04:38.540Z,6.67
2022-10-17T04:07:04.933Z,6.00
2022-10-17T04:09:31.309Z,6.30
2022-10-17T04:11:57.786Z,6.37
2022-10-17T04:14:24.221Z,6.60
2022-10-17T04:16:50.662Z,7.17
2022-10-17T04:19:17.109Z,6.57
2022-10-17T04:21:43.547Z,6.37
2022-10-17T04:24:11.895Z,6.50
2022-10-17T04:26:38.407Z,6.50
2022-10-17T04:29:04.833Z,6.90
2022-10-17T04:31:31.552Z,6.70
2022-10-17T04:33:57.967Z,6.10
2022-10-17T04:36:24.844Z,7.23
2022-10-17T04:38:51.245Z,7.27
2022-10-17T04:41:18.891Z,7.10
2022-10-17T04:43:48.638Z,7.00
2022-10-17T04:46:17.645Z,7.27
2022-10-17T04:48:44.036Z,7.03
2022-10-17T04:51:16.145Z,6.50
2022-10-17T04:53:43.964Z,7.20
2022-10-17T04:56:16.877Z,6.50
2022-10-17T04:58:44.484Z,6.93
2022-10-17T05:01:13.501Z,7.30
2022-10-17T05:03:40.080Z,6.77
2022-10-17T05:06:12.178Z,6.17
2022-10-17T05:08:39.169Z,6.83
2022-10-17T05:11:14.854Z,6.83
2022-10-17T05:13:41.240Z,6.80
2022-10-17T05:16:07.619Z,6.67
2022-10-17T05:18:33.988Z,6.90
2022-10-17T05:21:00.383Z,7.07
2022-10-17T05:23:29.131Z,7.40
2022-10-17T05:25:55.797Z,7.60
2022-10-17T05:28:23.113Z,7.23
2022-10-17T05:30:50.009Z,7.40
2022-10-17T05:33:16.461Z,8.60
2022-10-17T05:35:42.845Z,8.50
2022-10-17T05:38:09.233Z,8.03
2022-10-17T05:40:35.657Z,7.53
2022-10-17T05:43:02.273Z,6.90
2022-10-17T05:45:28.677Z,6.47
2022-10-17T05:47:55.049Z,6.80
2022-10-17T05:50:22.059Z,6.43
2022-10-17T05:52:53.627Z,7.30
2022-10-17T05:55:20.005Z,7.20
2022-10-17T05:57:46.427Z,6.93
2022-10-17T06:00:13.549Z,6.47
2022-10-17T06:02:40.184Z,7.17
2022-10-17T06:05:06.738Z,7.10
2022-10-17T06:07:33.146Z,6.30
2022-10-17T06:09:59.546Z,6.00
2022-10-17T06:12:26.048Z,6.07
2022-10-17T06:14:52.503Z,7.73
2022-10-17T06:17:18.939Z,7.53
2022-10-17T06:19:45.421Z,6.83
2022-10-17T06:22:11.926Z,6.83
2022-10-17T06:24:38.428Z,6.13
2022-10-17T06:27:09.388Z,6.70
2022-10-17T06:29:38.427Z,6.97
2022-10-17T06:32:05.210Z,6.80
2022-10-17T06:34:31.578Z,6.80
2022-10-17T06:36:58.054Z,6.13
2022-10-17T06:39:26.826Z,5.83
2022-10-17T06:41:53.242Z,6.70
2022-10-17T06:44:19.734Z,6.60
2022-10-17T06:46:46.173Z,5.73
2022-10-17T06:49:12.580Z,6.60
2022-10-17T06:51:39.072Z,6.67
2022-10-17T06:54:05.439Z,6.60
2022-10-17T06:56:31.867Z,7.50
2022-10-17T06:58:58.284Z,5.63
2022-10-17T07:01:24.680Z,5.97
2022-10-17T07:03:52.241Z,6.27
2022-10-17T07:06:19.145Z,5.40
2022-10-17T07:08:46.488Z,6.23
2022-10-17T07:11:15.497Z,6.30
2022-10-17T07:13:42.335Z,5.63
2022-10-17T07:16:09.239Z,6.10
2022-10-17T07:18:35.691Z,5.70
2022-10-17T07:21:02.403Z,5.77
2022-10-17T07:23:28.885Z,5.17
2022-10-17T07:26:02.295Z,5.47
2022-10-17T07:28:29.080Z,4.80
2022-10-17T07:30:55.548Z,5.50
2022-10-17T07:33:22.001Z,5.33
2022-10-17T07:35:48.452Z,5.33
2022-10-17T07:38:14.847Z,4.67
2022-10-17T07:40:41.264Z,5.00
2022-10-17T07:43:07.630Z,4.50
2022-10-17T07:45:34.051Z,5.17
2022-10-17T07:48:00.462Z,5.13
2022-10-17T07:50:26.876Z,4.60
2022-10-17T07:52:53.239Z,4.20
2022-10-17T07:55:19.640Z,4.73
2022-10-17T07:57:46.054Z,5.13
2022-10-17T08:00:12.737Z,4.50
2022-10-17T08:02:39.585Z,4.97
2022-10-17T08:05:06.372Z,4.00
2022-10-17T08:07:32.843Z,4.87
2022-10-17T08:09:59.334Z,5.37
2022-10-17T08:12:26.129Z,4.67
2022-10-17T08:14:52.570Z,4.47
2022-10-17T08:17:18.983Z,5.00
2022-10-17T08:19:45.395Z,4.97
2022-10-17T08:22:11.823Z,5.07
2022-10-17T08:24:38.232Z,7.57
2022-10-17T08:27:11.355Z,5.40
2022-10-17T08:29:38.965Z,4.53
2022-10-17T08:32:08.990Z,4.67
2022-10-17T08:34:36.299Z,4.63
2022-10-17T08:37:02.805Z,4.83
2022-10-17T08:39:29.251Z,5.23
2022-10-17T08:42:08.053Z,6.30
2022-10-17T08:44:51.249Z,4.90
2022-10-17T08:47:28.055Z,4.63
2022-10-17T08:50:01.102Z,4.50
2022-10-17T08:52:39.735Z,4.77
2022-10-17T08:55:39.975Z,4.93
2022-10-17T08:58:22.474Z,4.90
2022-10-17T09:01:12.729Z,4.80
2022-10-17T09:04:06.622Z,4.90
2022-10-17T09:06:32.912Z,4.90
2022-10-17T09:09:11.904Z,5.07
2022-10-17T09:11:44.860Z,4.47
2022-10-17T09:14:20.337Z,4.20
2022-10-17T09:17:32.482Z,4.60
2022-10-17T09:20:10.227Z,4.67
2022-10-17T09:23:05.780Z,4.10
2022-10-17T09:25:41.091Z,5.00
2022-10-17T09:28:10.489Z,4.77
2022-10-17T09:30:47.395Z,4.50
2022-10-17T09:33:28.374Z,4.43
2022-10-17T09:36:10.671Z,3.93
2022-10-17T09:38:41.974Z,3.83
2022-10-17T09:44:34.513Z,3.60
2022-10-17T09:47:19.557Z,4.30
2022-10-17T09:49:47.805Z,4.07
2022-10-17T09:52:24.195Z,4.90
2022-10-17T09:54:54.117Z,4.03
2022-10-17T09:57:21.986Z,4.37
2022-10-17T10:00:04.439Z,3.90
2022-10-17T10:02:33.517Z,3.63
2022-10-17T10:05:16.816Z,4.50
2022-10-17T10:07:46.301Z,4.00
2022-10-17T10:10:27.982Z,3.87
2022-10-17T10:13:13.130Z,3.67
2022-10-17T10:15:50.749Z,3.87
2022-10-17T10:18:26.249Z,3.80
2022-10-17T10:21:06.685Z,3.90
2022-10-17T10:23:34.120Z,3.50
2022-10-17T10:26:04.137Z,4.00
2022-10-17T10:28:35.990Z,3.30
2022-10-17T10:31:05.380Z,3.43
2022-10-17T10:33:36.773Z,3.80
2022-10-17T10:36:07.755Z,3.67
2022-10-17T10:38:35.076Z,3.93
2022-10-17T10:41:10.186Z,3.90
2022-10-17T10:43:39.427Z,3.87
2022-10-17T10:46:18.033Z,4.00
2022-10-17T10:48:52.020Z,3.60
2022-10-17T10:51:24.651Z,4.10
2022-10-17T10:53:56.971Z,3.27
2022-10-17T10:56:29.319Z,4.27
2022-10-17T10:59:02.850Z,3.60
2022-10-17T11:01:35.529Z,4.30
2022-10-17T11:04:19.630Z,4.40
2022-10-17T11:06:47.468Z,3.87
2022-10-17T11:09:17.595Z,3.40
2022-10-17T11:11:52.605Z,2.90
2022-10-17T11:14:34.853Z,5.10
2022-10-17T11:17:10.177Z,3.50
2022-10-17T11:19:47.624Z,3.90
2022-10-17T11:22:26.626Z,3.33
2022-10-17T11:25:04.037Z,3.60
2022-10-17T11:27:31.215Z,3.80
2022-10-17T11:29:58.488Z,3.70
2022-10-17T11:32:31.499Z,3.20
2022-10-17T11:35:07.351Z,4.00
2022-10-17T11:37:40.933Z,3.30
2022-10-17T11:40:24.350Z,3.50
2022-10-17T11:43:06.794Z,3.00
2022-10-17T11:45:42.684Z,4.13
2022-10-17T11:48:20.840Z,3.90
2022-10-17T11:53:50.937Z,3.00
2022-10-17T11:56:26.758Z,3.30
2022-10-17T11:59:14.756Z,3.57
2022-10-17T12:01:50.935Z,3.50
2022-10-17T12:04:24.677Z,4.07
2022-10-17T12:07:34.366Z,3.93
2022-10-17T12:10:32.090Z,12.47
2022-10-17T12:13:33.311Z,5.83
2022-10-17T12:16:18.613Z,8.53
2022-10-17T12:18:46.688Z,7.00
2022-10-17T12:21:13.116Z,6.00
2022-10-17T12:23:41.169Z,4.00
2022-10-17T12:26:10.384Z,3.90
2022-10-17T12:28:39.913Z,3.40
2022-10-17T12:31:29.620Z,2.97
2022-10-17T12:34:02.027Z,2.90
2022-10-17T12:36:28.460Z,3.17
2022-10-17T12:39:01.077Z,3.50
2022-10-17T12:41:39.806Z,3.10
2022-10-17T12:44:12.864Z,3.40
2022-10-17T12:46:55.702Z,3.43
2022-10-17T12:49:39.602Z,4.30
2022-10-17T12:52:53.883Z,3.50
2022-10-17T12:55:24.778Z,3.50
2022-10-17T12:58:03.373Z,3.50
2022-10-17T13:01:05.189Z,4.17
2022-10-17T13:03:46.685Z,3.60
2022-10-17T13:06:29.320Z,3.53
2022-10-17T13:09:05.577Z,3.33
2022-10-17T13:11:34.858Z,2.60
2022-10-17T13:14:08.981Z,3.50
2022-10-17T13:16:40.735Z,4.23
2022-10-17T13:19:16.607Z,3.53
2022-10-17T13:22:05.333Z,3.27
2022-10-17T13:24:38.511Z,3.60
2022-10-17T13:27:26.376Z,3.60
2022-10-17T13:29:52.917Z,3.47
2022-10-17T13:32:19.393Z,3.00
2022-10-17T13:34:45.805Z,3.00
2022-10-17T13:37:15.505Z,3.60
2022-10-17T13:39:54.769Z,3.07
2022-10-17T13:42:28.726Z,3.60
2022-10-17T13:44:56.642Z,2.97
2022-10-17T13:47:30.465Z,3.53
2022-10-17T13:49:58.149Z,2.37
2022-10-17T13:52:30.154Z,3.20
2022-10-17T13:55:08.153Z,3.50
2022-10-17T13:57:34.881Z,2.90
2022-10-17T14:00:12.412Z,2.87
2022-10-17T14:02:41.077Z,2.90
2022-10-17T14:05:18.963Z,3.90
2022-10-17T14:08:11.206Z,3.60
2022-10-17T14:10:40.514Z,2.90
2022-10-17T14:13:08.222Z,3.10
2022-10-17T14:15:36.263Z,2.90
2022-10-17T14:18:07.779Z,3.40
2022-10-17T14:23:36.952Z,3.23
2022-10-17T14:26:19.756Z,2.80
2022-10-17T14:28:49.643Z,3.13
2022-10-17T14:31:21.145Z,3.20
2022-10-17T14:33:50.871Z,2.87
2022-10-17T14:36:18.981Z,3.00
2022-10-17T14:38:49.632Z,3.17
2022-10-17T14:41:41.892Z,3.30
2022-10-17T14:44:19.181Z,2.37
2022-10-17T14:46:50.686Z,2.90
2022-10-17T14:49:24.784Z,3.27
2022-10-17T14:52:18.286Z,2.57
2022-10-17T14:54:47.130Z,2.83
2022-10-17T14:57:19.579Z,3.03
2022-10-17T14:59:54.680Z,2.70
2022-10-17T15:02:26.872Z,2.70
2022-10-17T15:04:53.494Z,3.10
2022-10-17T15:07:21.230Z,2.73
2022-10-17T15:09:50.684Z,2.97
2022-10-17T15:12:19.810Z,4.67
2022-10-17T15:14:48.000Z,2.83
2022-10-17T15:17:20.837Z,2.73
2022-10-17T15:19:48.231Z,2.63
2022-10-17T15:22:16.154Z,2.80
2022-10-17T15:24:42.940Z,2.90
2022-10-17T15:27:16.722Z,2.60
2022-10-17T15:29:43.290Z,2.70
2022-10-17T15:32:09.689Z,2.50
2022-10-17T15:34:36.218Z,2.63
2022-10-17T15:37:04.745Z,2.40
2022-10-17T15:39:31.238Z,2.50
2022-10-17T15:41:58.754Z,2.80
2022-10-17T15:44:25.349Z,3.00
2022-10-17T15:46:51.784Z,2.50
2022-10-17T15:49:19.859Z,2.90
2022-10-17T15:51:47.207Z,4.40
2022-10-17T15:54:15.846Z,4.17
2022-10-17T15:56:43.112Z,5.40
2022-10-17T15:59:16.706Z,5.07
2022-10-17T16:01:43.178Z,4.47
2022-10-17T16:04:13.101Z,4.97
2022-10-17T16:06:39.579Z,4.70
2022-10-17T16:09:06.069Z,5.27
2022-10-17T16:11:38.111Z,4.27
2022-10-17T16:14:07.165Z,4.30
2022-10-17T16:16:33.664Z,3.83
2022-10-17T16:19:01.306Z,4.13
2022-10-17T16:24:02.402Z,4.40
2022-10-17T16:26:29.488Z,4.27
2022-10-17T16:28:57.793Z,4.30
2022-10-17T16:31:31.031Z,4.53
2022-10-17T16:33:59.479Z,4.10
2022-10-17T16:36:26.136Z,4.50
2022-10-17T16:38:54.110Z,4.00
2022-10-17T16:41:30.258Z,3.53
2022-10-17T16:43:59.495Z,4.10
2022-10-17T16:46:27.488Z,3.97
2022-10-17T16:48:54.633Z,3.73
2022-10-17T16:51:21.543Z,3.80
2022-10-17T16:53:50.571Z,3.20
2022-10-17T16:56:19.451Z,3.67
2022-10-17T16:58:46.427Z,3.87
2022-10-17T17:01:18.968Z,4.00
2022-10-17T17:03:47.358Z,5.80
2022-10-17T17:06:23.057Z,3.97
2022-10-17T17:08:49.799Z,4.00
2022-10-17T17:11:18.437Z,5.53
2022-10-17T17:13:45.125Z,5.07
2022-10-17T17:16:17.994Z,4.60
2022-10-17T17:18:46.002Z,6.57
2022-10-17T17:21:13.902Z,5.30
2022-10-17T17:23:41.839Z,4.00
2022-10-17T17:26:14.525Z,3.77
2022-10-17T17:28:42.275Z,3.43
2022-10-17T17:31:10.972Z,3.20
2022-10-17T17:33:39.355Z,3.83
2022-10-17T17:36:06.653Z,3.30
2022-10-17T17:38:35.816Z,3.07
2022-10-17T17:41:03.685Z,3.10
2022-10-17T17:43:30.376Z,3.03
2022-10-17T17:45:56.843Z,3.70
2022-10-17T17:48:23.242Z,3.50
2022-10-17T17:50:49.638Z,3.63
2022-10-17T17:53:17.149Z,3.03
2022-10-17T17:55:43.612Z,3.93
2022-10-17T17:58:11.246Z,4.17
2022-10-17T18:00:38.561Z,4.73
2022-10-17T18:03:05.049Z,3.50
2022-10-17T18:05:31.584Z,4.47
2022-10-17T18:07:57.992Z,4.93
2022-10-17T18:10:24.496Z,4.53
2022-10-17T18:12:50.910Z,4.60
2022-10-17T18:15:17.537Z,5.00
2022-10-17T18:17:43.962Z,4.40
2022-10-17T18:20:10.758Z,4.73
2022-10-17T18:22:37.158Z,4.17
2022-10-17T18:25:03.750Z,4.30
2022-10-17T18:27:30.131Z,3.53
2022-10-17T18:29:56.482Z,3.93
2022-10-17T18:32:22.901Z,3.77
2022-10-17T18:34:49.328Z,4.00
2022-10-17T18:37:15.730Z,3.67
2022-10-17T18:39:42.110Z,4.00
2022-10-17T18:42:08.787Z,3.50
2022-10-17T18:44:35.194Z,4.03
2022-10-17T18:47:04.148Z,3.57
2022-10-17T18:49:31.233Z,4.10
2022-10-17T18:51:59.433Z,4.40
2022-10-17T18:54:25.876Z,4.50
2022-10-17T18:56:54.362Z,4.70
2022-10-17T18:59:21.125Z,4.73
2022-10-17T19:01:48.055Z,5.33
2022-10-17T19:04:14.756Z,6.60
2022-10-17T19:06:41.907Z,7.50
2022-10-17T19:09:10.547Z,7.73
2022-10-17T19:11:38.181Z,5.60
2022-10-17T19:14:12.641Z,5.23
2022-10-17T19:16:41.916Z,4.97
2022-10-17T19:19:14.596Z,5.37
2022-10-17T19:21:41.404Z,5.43
2022-10-17T19:24:12.636Z,5.83
2022-10-17T19:26:39.756Z,6.07
2022-10-17T19:29:06.539Z,7.47
2022-10-17T19:31:35.049Z,6.77
2022-10-17T19:34:01.530Z,5.97
2022-10-17T19:36:33.249Z,6.30
2022-10-17T19:39:03.075Z,6.53
2022-10-17T19:41:29.625Z,6.30
2022-10-17T19:43:56.136Z,5.90
2022-10-17T19:46:25.631Z,6.00
2022-10-17T19:48:52.666Z,7.10
2022-10-17T19:51:24.309Z,5.30
2022-10-17T19:53:52.128Z,5.13
2022-10-17T19:56:22.833Z,5.50
2022-10-17T19:58:50.484Z,4.70
2022-10-17T20:01:20.340Z,5.00
2022-10-17T20:03:47.376Z,5.13
2022-10-17T20:06:14.721Z,5.83
2022-10-17T20:08:41.878Z,5.87
2022-10-17T20:11:11.889Z,5.43
2022-10-17T20:13:38.697Z,5.13
2022-10-17T20:16:06.607Z,4.87
2022-10-17T20:18:33.525Z,5.10
2022-10-17T20:21:06.396Z,5.40
2022-10-17T20:23:34.093Z,5.67
2022-10-17T20:26:25.445Z,5.30
2022-10-17T20:28:52.919Z,4.30
2022-10-17T20:31:19.831Z,5.50
2022-10-17T20:33:46.260Z,5.30
2022-10-17T20:36:14.431Z,5.50
2022-10-17T20:38:40.867Z,4.87
2022-10-17T20:41:09.350Z,4.70
2022-10-17T20:43:36.729Z,5.40
2022-10-17T20:46:22.036Z,4.70
2022-10-17T20:48:53.937Z,5.20
2022-10-17T20:51:21.117Z,5.23
2022-10-17T20:53:48.031Z,4.60
2022-10-17T20:56:20.594Z,5.30
2022-10-17T20:58:58.830Z,4.97
2022-10-17T21:01:26.169Z,5.20
2022-10-17T21:03:53.567Z,6.27
2022-10-17T21:06:20.589Z,5.37
2022-10-17T21:08:47.709Z,5.63
2022-10-17T21:11:15.880Z,6.70
2022-10-17T21:13:42.663Z,8.07
2022-10-17T21:16:12.028Z,9.27
2022-10-17T21:18:39.226Z,13.77
2022-10-17T21:21:13.658Z,10.43
2022-10-17T21:23:41.396Z,7.23
2022-10-17T21:26:09.620Z,7.20
2022-10-17T21:28:37.067Z,7.47
2022-10-17T21:31:17.201Z,6.20
2022-10-17T21:33:46.596Z,6.53
2022-10-17T21:36:13.969Z,6.47
2022-10-17T21:38:40.896Z,6.43
2022-10-17T21:41:09.020Z,6.50
2022-10-17T21:43:36.519Z,6.17
2022-10-17T21:46:09.029Z,5.73
2022-10-17T21:48:35.942Z,6.00
2022-10-17T21:51:06.148Z,7.07
2022-10-17T21:53:33.199Z,5.63
2022-10-17T21:56:01.185Z,5.97
2022-10-17T21:58:28.516Z,6.50
2022-10-17T22:01:06.249Z,5.53
2022-10-17T22:03:34.710Z,6.33
2022-10-17T22:06:12.826Z,5.80
2022-10-17T22:08:49.416Z,6.33
2022-10-17T22:11:19.341Z,5.60
2022-10-17T22:13:46.249Z,6.40
2022-10-17T22:16:15.161Z,5.23
2022-10-17T22:18:42.355Z,6.37
2022-10-17T22:21:13.425Z,5.70
2022-10-17T22:23:41.926Z,6.43
2022-10-17T22:26:09.225Z,6.03
2022-10-17T22:28:36.269Z,5.80
2022-10-17T22:31:02.776Z,6.77
2022-10-17T22:33:31.661Z,6.33
2022-10-17T22:35:58.167Z,6.17
2022-10-17T22:38:24.624Z,5.93
2022-10-17T22:40:51.084Z,6.37
2022-10-17T22:43:17.484Z,7.47
2022-10-17T22:45:51.942Z,6.27
2022-10-17T22:48:18.307Z,7.50
2022-10-17T22:50:45.706Z,7.00
2022-10-17T22:53:12.257Z,6.50
2022-10-17T22:55:38.676Z,7.57
2022-10-17T22:58:05.104Z,6.43
2022-10-17T23:00:31.542Z,6.50
2022-10-17T23:02:58.210Z,6.43
2022-10-17T23:05:24.638Z,6.87
2022-10-17T23:07:51.082Z,6.17
2022-10-17T23:10:17.488Z,6.73
2022-10-17T23:12:43.884Z,6.50
2022-10-17T23:15:10.496Z,6.50
2022-10-17T23:17:36.910Z,6.27
2022-10-17T23:20:03.737Z,6.20
2022-10-17T23:22:30.346Z,6.83
2022-10-17T23:24:56.941Z,7.60
2022-10-17T23:27:23.356Z,7.87
2022-10-17T23:29:49.808Z,7.23
2022-10-17T23:32:16.182Z,7.50
2022-10-17T23:34:42.556Z,8.33
2022-10-17T23:37:10.416Z,8.43
2022-10-17T23:39:36.821Z,7.10
2022-10-17T23:42:03.286Z,7.50
2022-10-17T23:44:29.693Z,7.43
2022-10-17T23:46:56.163Z,8.77
2022-10-17T23:49:22.626Z,7.60
2022-10-17T23:51:48.978Z,7.30
2022-10-17T23:54:15.383Z,7.00
2022-10-17T23:56:41.790Z,6.80
2022-10-17T23:59:08.912Z,7.50
